sensor_id;sensor_type;location;lat;lon;timestamp;temperature;humidity
32977;DHT22;47687;50.842;4.450;2022-09-21T00:00:30;9.70;99.90
32977;DHT22;47687;50.842;4.450;2022-09-21T00:02:56;9.70;99.90
32977;DHT22;47687;50.842;4.450;2022-09-21T00:05:22;9.60;99.90
32977;DHT22;47687;50.842;4.450;2022-09-21T00:07:48;9.50;99.90
32977;DHT22;47687;50.842;4.450;2022-09-21T00:10:14;9.50;99.90
32977;DHT22;47687;50.842;4.450;2022-09-21T00:12:40;9.50;99.90
32977;DHT22;47687;50.842;4.450;2022-09-21T00:15:09;9.50;99.90
32977;DHT22;47687;50.842;4.450;2022-09-21T00:17:35;9.50;99.90
32977;DHT22;47687;50.842;4.450;2022-09-21T00:20:01;9.50;99.90
32977;DHT22;47687;50.842;4.450;2022-09-21T00:22:29;9.40;99.90
32977;DHT22;47687;50.842;4.450;2022-09-21T00:24:55;9.40;99.90
32977;DHT22;47687;50.842;4.450;2022-09-21T00:27:21;9.40;99.90
32977;DHT22;47687;50.842;4.450;2022-09-21T00:29:46;9.30;99.90
32977;DHT22;47687;50.842;4.450;2022-09-21T00:32:13;9.30;99.90
32977;DHT22;47687;50.842;4.450;2022-09-21T00:34:40;9.30;99.90
32977;DHT22;47687;50.842;4.450;2022-09-21T00:37:06;9.30;99.90
32977;DHT22;47687;50.842;4.450;2022-09-21T00:39:33;9.30;99.90
32977;DHT22;47687;50.842;4.450;2022-09-21T00:41:59;9.20;99.90
32977;DHT22;47687;50.842;4.450;2022-09-21T00:44:29;9.20;99.90
32977;DHT22;47687;50.842;4.450;2022-09-21T00:46:55;9.20;99.90
32977;DHT22;47687;50.842;4.450;2022-09-21T00:49:22;9.30;99.90
32977;DHT22;47687;50.842;4.450;2022-09-21T00:51:49;9.20;99.90
32977;DHT22;47687;50.842;4.450;2022-09-21T00:54:27;9.20;99.90
32977;DHT22;47687;50.842;4.450;2022-09-21T00:56:54;9.10;99.90
32977;DHT22;47687;50.842;4.450;2022-09-21T00:59:20;9.10;99.90
32977;DHT22;47687;50.842;4.450;2022-09-21T01:01:47;9.10;99.90
32977;DHT22;47687;50.842;4.450;2022-09-21T01:04:12;9.10;99.90
32977;DHT22;47687;50.842;4.450;2022-09-21T01:06:41;9.10;99.90
32977;DHT22;47687;50.842;4.450;2022-09-21T01:09:06;9.10;99.90
32977;DHT22;47687;50.842;4.450;2022-09-21T01:16:55;9.00;99.90
32977;DHT22;47687;50.842;4.450;2022-09-21T01:19:45;9.00;99.90
32977;DHT22;47687;50.842;4.450;2022-09-21T01:30:13;8.90;99.90
32977;DHT22;47687;50.842;4.450;2022-09-21T01:32:41;8.90;99.90
32977;DHT22;47687;50.842;4.450;2022-09-21T01:37:41;8.80;99.90
32977;DHT22;47687;50.842;4.450;2022-09-21T01:40:13;8.80;99.90
32977;DHT22;47687;50.842;4.450;2022-09-21T01:42:42;8.80;99.90
32977;DHT22;47687;50.842;4.450;2022-09-21T01:45:10;8.80;99.90
32977;DHT22;47687;50.842;4.450;2022-09-21T01:47:37;8.70;99.90
32977;DHT22;47687;50.842;4.450;2022-09-21T01:50:05;8.70;99.90
32977;DHT22;47687;50.842;4.450;2022-09-21T01:52:36;8.70;99.90
32977;DHT22;47687;50.842;4.450;2022-09-21T01:55:12;8.70;99.90
32977;DHT22;47687;50.842;4.450;2022-09-21T01:57:42;8.70;99.90
32977;DHT22;47687;50.842;4.450;2022-09-21T02:00:10;8.70;99.90
32977;DHT22;47687;50.842;4.450;2022-09-21T02:02:40;8.70;99.90
32977;DHT22;47687;50.842;4.450;2022-09-21T02:05:07;8.70;99.90
32977;DHT22;47687;50.842;4.450;2022-09-21T02:07:33;9.70;99.90
32977;DHT22;47687;50.842;4.450;2022-09-21T02:10:00;8.70;99.90
32977;DHT22;47687;50.842;4.450;2022-09-21T02:12:26;8.70;99.90
32977;DHT22;47687;50.842;4.450;2022-09-21T02:14:51;8.60;99.90
32977;DHT22;47687;50.842;4.450;2022-09-21T02:24:56;9.30;99.90
32977;DHT22;47687;50.842;4.450;2022-09-21T02:30:06;8.50;99.90
32977;DHT22;47687;50.842;4.450;2022-09-21T02:32:42;8.50;99.90
32977;DHT22;47687;50.842;4.450;2022-09-21T02:35:21;8.50;99.90
32977;DHT22;47687;50.842;4.450;2022-09-21T02:37:57;8.50;99.90
32977;DHT22;47687;50.842;4.450;2022-09-21T02:40:29;9.50;99.90
32977;DHT22;47687;50.842;4.450;2022-09-21T02:42:56;8.50;99.90
32977;DHT22;47687;50.842;4.450;2022-09-21T02:45:30;8.40;99.90
32977;DHT22;47687;50.842;4.450;2022-09-21T02:48:02;8.40;99.90
32977;DHT22;47687;50.842;4.450;2022-09-21T02:50:34;8.40;99.90
32977;DHT22;47687;50.842;4.450;2022-09-21T02:53:00;8.40;99.90
32977;DHT22;47687;50.842;4.450;2022-09-21T02:55:28;9.10;99.90
32977;DHT22;47687;50.842;4.450;2022-09-21T02:57:55;9.20;99.90
32977;DHT22;47687;50.842;4.450;2022-09-21T03:00:21;8.30;99.90
32977;DHT22;47687;50.842;4.450;2022-09-21T03:02:46;8.90;99.90
32977;DHT22;47687;50.842;4.450;2022-09-21T03:05:12;8.90;99.90
32977;DHT22;47687;50.842;4.450;2022-09-21T03:07:38;8.40;99.90
32977;DHT22;47687;50.842;4.450;2022-09-21T03:10:04;8.50;99.90
32977;DHT22;47687;50.842;4.450;2022-09-21T03:12:30;8.30;99.90
32977;DHT22;47687;50.842;4.450;2022-09-21T03:14:57;8.40;99.90
32977;DHT22;47687;50.842;4.450;2022-09-21T03:17:22;8.30;99.90
32977;DHT22;47687;50.842;4.450;2022-09-21T03:19:48;8.30;99.90
32977;DHT22;47687;50.842;4.450;2022-09-21T03:22:14;8.20;99.90
32977;DHT22;47687;50.842;4.450;2022-09-21T03:24:41;8.20;99.90
32977;DHT22;47687;50.842;4.450;2022-09-21T03:27:09;8.20;99.90
32977;DHT22;47687;50.842;4.450;2022-09-21T03:29:35;8.20;99.90
32977;DHT22;47687;50.842;4.450;2022-09-21T03:32:00;8.10;99.90
32977;DHT22;47687;50.842;4.450;2022-09-21T03:34:26;8.10;99.90
32977;DHT22;47687;50.842;4.450;2022-09-21T03:36:51;8.10;99.90
32977;DHT22;47687;50.842;4.450;2022-09-21T03:39:17;8.30;99.90
32977;DHT22;47687;50.842;4.450;2022-09-21T03:41:42;8.00;99.90
32977;DHT22;47687;50.842;4.450;2022-09-21T03:44:09;8.30;99.90
32977;DHT22;47687;50.842;4.450;2022-09-21T03:46:34;9.20;99.90
32977;DHT22;47687;50.842;4.450;2022-09-21T03:49:00;8.10;99.90
32977;DHT22;47687;50.842;4.450;2022-09-21T03:51:27;8.00;99.90
32977;DHT22;47687;50.842;4.450;2022-09-21T03:53:54;8.00;99.90
32977;DHT22;47687;50.842;4.450;2022-09-21T03:56:19;8.00;99.90
32977;DHT22;47687;50.842;4.450;2022-09-21T03:58:45;8.00;99.90
32977;DHT22;47687;50.842;4.450;2022-09-21T04:01:10;7.90;99.90
32977;DHT22;47687;50.842;4.450;2022-09-21T04:03:36;8.10;99.90
32977;DHT22;47687;50.842;4.450;2022-09-21T04:06:11;7.90;99.90
32977;DHT22;47687;50.842;4.450;2022-09-21T04:08:37;7.90;99.90
32977;DHT22;47687;50.842;4.450;2022-09-21T04:11:10;7.90;99.90
32977;DHT22;47687;50.842;4.450;2022-09-21T04:13:36;7.90;99.90
32977;DHT22;47687;50.842;4.450;2022-09-21T04:16:01;7.90;99.90
32977;DHT22;47687;50.842;4.450;2022-09-21T04:18:27;8.70;99.90
32977;DHT22;47687;50.842;4.450;2022-09-21T04:20:52;7.80;99.90
32977;DHT22;47687;50.842;4.450;2022-09-21T04:23:18;7.80;99.90
32977;DHT22;47687;50.842;4.450;2022-09-21T04:25:44;7.70;99.90
32977;DHT22;47687;50.842;4.450;2022-09-21T04:28:11;7.80;99.90
32977;DHT22;47687;50.842;4.450;2022-09-21T04:30:37;7.80;99.90
32977;DHT22;47687;50.842;4.450;2022-09-21T04:33:02;7.80;99.90
32977;DHT22;47687;50.842;4.450;2022-09-21T04:35:28;7.80;99.90
32977;DHT22;47687;50.842;4.450;2022-09-21T04:37:54;7.80;99.90
32977;DHT22;47687;50.842;4.450;2022-09-21T04:40:20;8.80;99.90
32977;DHT22;47687;50.842;4.450;2022-09-21T04:42:49;7.80;99.90
32977;DHT22;47687;50.842;4.450;2022-09-21T04:45:14;7.80;99.90
32977;DHT22;47687;50.842;4.450;2022-09-21T04:47:40;7.80;99.90
32977;DHT22;47687;50.842;4.450;2022-09-21T04:50:05;8.20;99.90
32977;DHT22;47687;50.842;4.450;2022-09-21T04:52:31;7.70;99.90
32977;DHT22;47687;50.842;4.450;2022-09-21T04:54:57;7.70;99.90
32977;DHT22;47687;50.842;4.450;2022-09-21T04:57:22;9.20;99.90
32977;DHT22;47687;50.842;4.450;2022-09-21T04:59:48;7.70;99.90
32977;DHT22;47687;50.842;4.450;2022-09-21T05:02:13;7.80;99.90
32977;DHT22;47687;50.842;4.450;2022-09-21T05:04:38;7.70;99.90
32977;DHT22;47687;50.842;4.450;2022-09-21T05:07:04;7.80;99.90
32977;DHT22;47687;50.842;4.450;2022-09-21T05:09:30;7.60;99.90
32977;DHT22;47687;50.842;4.450;2022-09-21T05:12:14;7.60;99.90
32977;DHT22;47687;50.842;4.450;2022-09-21T05:14:40;7.60;99.90
32977;DHT22;47687;50.842;4.450;2022-09-21T05:17:08;7.60;99.90
32977;DHT22;47687;50.842;4.450;2022-09-21T05:19:33;7.60;99.90
32977;DHT22;47687;50.842;4.450;2022-09-21T05:21:59;7.60;99.90
32977;DHT22;47687;50.842;4.450;2022-09-21T05:24:24;7.60;99.90
32977;DHT22;47687;50.842;4.450;2022-09-21T05:26:50;7.60;99.90
32977;DHT22;47687;50.842;4.450;2022-09-21T05:29:15;7.80;99.90
32977;DHT22;47687;50.842;4.450;2022-09-21T05:31:49;7.70;99.90
32977;DHT22;47687;50.842;4.450;2022-09-21T05:34:21;7.80;99.90
32977;DHT22;47687;50.842;4.450;2022-09-21T05:36:55;7.80;99.90
32977;DHT22;47687;50.842;4.450;2022-09-21T05:39:22;8.90;99.90
32977;DHT22;47687;50.842;4.450;2022-09-21T05:41:47;7.80;99.90
32977;DHT22;47687;50.842;4.450;2022-09-21T05:44:13;7.90;99.90
32977;DHT22;47687;50.842;4.450;2022-09-21T05:46:45;7.90;99.90
32977;DHT22;47687;50.842;4.450;2022-09-21T05:49:16;7.90;99.90
32977;DHT22;47687;50.842;4.450;2022-09-21T05:51:49;7.90;99.90
32977;DHT22;47687;50.842;4.450;2022-09-21T06:04:43;8.20;99.90
32977;DHT22;47687;50.842;4.450;2022-09-21T06:07:09;8.30;99.90
32977;DHT22;47687;50.842;4.450;2022-09-21T06:09:34;8.40;99.90
32977;DHT22;47687;50.842;4.450;2022-09-21T06:12:00;8.30;99.90
32977;DHT22;47687;50.842;4.450;2022-09-21T06:14:25;8.40;99.90
32977;DHT22;47687;50.842;4.450;2022-09-21T06:16:52;8.50;99.90
32977;DHT22;47687;50.842;4.450;2022-09-21T06:19:17;8.50;99.90
32977;DHT22;47687;50.842;4.450;2022-09-21T06:21:43;8.50;99.90
32977;DHT22;47687;50.842;4.450;2022-09-21T06:24:08;9.40;99.90
32977;DHT22;47687;50.842;4.450;2022-09-21T06:26:34;8.70;99.90
32977;DHT22;47687;50.842;4.450;2022-09-21T06:29:00;9.10;99.90
32977;DHT22;47687;50.842;4.450;2022-09-21T06:31:26;8.80;99.90
32977;DHT22;47687;50.842;4.450;2022-09-21T06:33:51;8.90;99.90
32977;DHT22;47687;50.842;4.450;2022-09-21T06:36:17;8.90;99.90
32977;DHT22;47687;50.842;4.450;2022-09-21T06:38:42;9.30;99.90
32977;DHT22;47687;50.842;4.450;2022-09-21T06:41:08;9.50;99.90
32977;DHT22;47687;50.842;4.450;2022-09-21T06:43:33;9.30;99.90
32977;DHT22;47687;50.842;4.450;2022-09-21T06:45:59;9.30;99.90
32977;DHT22;47687;50.842;4.450;2022-09-21T06:48:25;9.90;99.90
32977;DHT22;47687;50.842;4.450;2022-09-21T06:51:01;9.50;99.90
32977;DHT22;47687;50.842;4.450;2022-09-21T06:53:28;9.50;99.90
32977;DHT22;47687;50.842;4.450;2022-09-21T06:57:30;9.70;99.90
32977;DHT22;47687;50.842;4.450;2022-09-21T06:59:56;9.80;99.90
32977;DHT22;47687;50.842;4.450;2022-09-21T07:02:22;10.00;99.90
32977;DHT22;47687;50.842;4.450;2022-09-21T07:04:47;10.00;99.90
32977;DHT22;47687;50.842;4.450;2022-09-21T07:07:13;10.10;99.90
32977;DHT22;47687;50.842;4.450;2022-09-21T07:09:38;10.10;99.90
32977;DHT22;47687;50.842;4.450;2022-09-21T07:12:04;10.10;99.90
32977;DHT22;47687;50.842;4.450;2022-09-21T07:14:31;10.10;99.90
32977;DHT22;47687;50.842;4.450;2022-09-21T07:16:56;10.30;99.90
32977;DHT22;47687;50.842;4.450;2022-09-21T07:19:22;10.30;99.90
32977;DHT22;47687;50.842;4.450;2022-09-21T07:21:48;10.30;99.90
32977;DHT22;47687;50.842;4.450;2022-09-21T07:24:13;10.30;99.90
32977;DHT22;47687;50.842;4.450;2022-09-21T07:26:39;10.30;99.90
32977;DHT22;47687;50.842;4.450;2022-09-21T07:29:05;10.30;99.90
32977;DHT22;47687;50.842;4.450;2022-09-21T07:31:31;10.30;99.90
32977;DHT22;47687;50.842;4.450;2022-09-21T07:33:57;10.30;99.90
32977;DHT22;47687;50.842;4.450;2022-09-21T07:36:23;10.30;99.90
32977;DHT22;47687;50.842;4.450;2022-09-21T07:38:49;10.30;99.90
32977;DHT22;47687;50.842;4.450;2022-09-21T07:41:14;10.40;99.90
32977;DHT22;47687;50.842;4.450;2022-09-21T07:43:40;10.30;99.90
32977;DHT22;47687;50.842;4.450;2022-09-21T07:46:08;10.40;99.90
32977;DHT22;47687;50.842;4.450;2022-09-21T07:48:35;10.60;99.90
32977;DHT22;47687;50.842;4.450;2022-09-21T07:51:04;11.10;99.90
32977;DHT22;47687;50.842;4.450;2022-09-21T07:53:34;10.90;99.90
32977;DHT22;47687;50.842;4.450;2022-09-21T07:56:01;11.10;99.90
32977;DHT22;47687;50.842;4.450;2022-09-21T07:58:27;11.30;99.90
32977;DHT22;47687;50.842;4.450;2022-09-21T08:01:11;11.40;99.90
32977;DHT22;47687;50.842;4.450;2022-09-21T08:03:37;11.50;99.90
32977;DHT22;47687;50.842;4.450;2022-09-21T08:06:03;11.60;99.90
32977;DHT22;47687;50.842;4.450;2022-09-21T08:08:29;11.70;99.90
32977;DHT22;47687;50.842;4.450;2022-09-21T08:10:54;11.80;99.90
32977;DHT22;47687;50.842;4.450;2022-09-21T08:13:22;11.70;99.90
32977;DHT22;47687;50.842;4.450;2022-09-21T08:16:00;11.70;99.90
32977;DHT22;47687;50.842;4.450;2022-09-21T08:18:25;12.30;99.90
32977;DHT22;47687;50.842;4.450;2022-09-21T08:20:59;12.00;99.90
32977;DHT22;47687;50.842;4.450;2022-09-21T08:23:25;12.20;99.90
32977;DHT22;47687;50.842;4.450;2022-09-21T08:26:00;12.20;99.90
32977;DHT22;47687;50.842;4.450;2022-09-21T08:28:27;12.20;99.90
32977;DHT22;47687;50.842;4.450;2022-09-21T08:30:53;12.40;99.90
32977;DHT22;47687;50.842;4.450;2022-09-21T08:33:23;12.30;99.90
32977;DHT22;47687;50.842;4.450;2022-09-21T08:35:56;12.20;99.90
32977;DHT22;47687;50.842;4.450;2022-09-21T08:38:23;12.40;99.90
32977;DHT22;47687;50.842;4.450;2022-09-21T08:40:49;12.60;99.90
32977;DHT22;47687;50.842;4.450;2022-09-21T08:43:26;12.70;99.90
32977;DHT22;47687;50.842;4.450;2022-09-21T08:45:54;13.10;99.90
32977;DHT22;47687;50.842;4.450;2022-09-21T08:48:30;13.10;99.90
32977;DHT22;47687;50.842;4.450;2022-09-21T08:51:04;13.10;99.90
32977;DHT22;47687;50.842;4.450;2022-09-21T08:53:36;13.10;99.90
32977;DHT22;47687;50.842;4.450;2022-09-21T08:56:02;13.10;99.90
32977;DHT22;47687;50.842;4.450;2022-09-21T08:58:30;13.20;99.90
32977;DHT22;47687;50.842;4.450;2022-09-21T09:01:31;13.20;99.90
32977;DHT22;47687;50.842;4.450;2022-09-21T09:07:12;13.30;99.90
32977;DHT22;47687;50.842;4.450;2022-09-21T09:18:00;13.90;99.90
32977;DHT22;47687;50.842;4.450;2022-09-21T09:20:37;14.00;99.90
32977;DHT22;47687;50.842;4.450;2022-09-21T09:23:20;14.10;99.90
32977;DHT22;47687;50.842;4.450;2022-09-21T09:25:50;14.20;99.90
32977;DHT22;47687;50.842;4.450;2022-09-21T09:28:25;14.30;99.90
32977;DHT22;47687;50.842;4.450;2022-09-21T09:31:05;14.40;99.90
32977;DHT22;47687;50.842;4.450;2022-09-21T09:33:47;14.30;99.90
32977;DHT22;47687;50.842;4.450;2022-09-21T09:36:14;14.10;99.90
32977;DHT22;47687;50.842;4.450;2022-09-21T09:38:59;14.10;99.90
32977;DHT22;47687;50.842;4.450;2022-09-21T09:46:41;14.60;99.90
32977;DHT22;47687;50.842;4.450;2022-09-21T09:52:10;14.70;99.90
32977;DHT22;47687;50.842;4.450;2022-09-21T09:54:36;14.80;99.90
32977;DHT22;47687;50.842;4.450;2022-09-21T09:57:03;14.90;99.90
32977;DHT22;47687;50.842;4.450;2022-09-21T09:59:34;15.00;99.90
32977;DHT22;47687;50.842;4.450;2022-09-21T10:02:07;15.00;99.90
32977;DHT22;47687;50.842;4.450;2022-09-21T10:04:32;15.10;99.90
32977;DHT22;47687;50.842;4.450;2022-09-21T10:07:01;15.00;99.90
32977;DHT22;47687;50.842;4.450;2022-09-21T10:09:29;15.10;99.90
32977;DHT22;47687;50.842;4.450;2022-09-21T10:12:01;15.10;99.90
32977;DHT22;47687;50.842;4.450;2022-09-21T10:14:32;14.70;99.90
32977;DHT22;47687;50.842;4.450;2022-09-21T10:17:04;14.70;99.90
32977;DHT22;47687;50.842;4.450;2022-09-21T10:19:31;14.80;99.90
32977;DHT22;47687;50.842;4.450;2022-09-21T10:22:05;14.70;99.90
32977;DHT22;47687;50.842;4.450;2022-09-21T10:24:36;14.90;99.90
32977;DHT22;47687;50.842;4.450;2022-09-21T10:27:05;15.10;99.90
32977;DHT22;47687;50.842;4.450;2022-09-21T10:29:45;15.30;99.90
32977;DHT22;47687;50.842;4.450;2022-09-21T10:34:58;15.60;99.90
32977;DHT22;47687;50.842;4.450;2022-09-21T10:37:44;15.90;99.90
32977;DHT22;47687;50.842;4.450;2022-09-21T10:42:45;15.80;99.90
32977;DHT22;47687;50.842;4.450;2022-09-21T10:45:22;15.80;99.90
32977;DHT22;47687;50.842;4.450;2022-09-21T10:50:29;15.90;99.90
32977;DHT22;47687;50.842;4.450;2022-09-21T10:55:54;16.00;99.90
32977;DHT22;47687;50.842;4.450;2022-09-21T10:58:23;16.20;99.90
32977;DHT22;47687;50.842;4.450;2022-09-21T11:00:50;16.30;99.90
32977;DHT22;47687;50.842;4.450;2022-09-21T11:06:30;16.60;99.90
32977;DHT22;47687;50.842;4.450;2022-09-21T11:09:06;16.80;99.90
32977;DHT22;47687;50.842;4.450;2022-09-21T11:11:48;17.00;99.90
32977;DHT22;47687;50.842;4.450;2022-09-21T11:17:20;17.10;99.90
32977;DHT22;47687;50.842;4.450;2022-09-21T11:19:55;17.30;99.90
32977;DHT22;47687;50.842;4.450;2022-09-21T11:22:30;17.40;99.90
32977;DHT22;47687;50.842;4.450;2022-09-21T11:25:22;17.60;99.90
32977;DHT22;47687;50.842;4.450;2022-09-21T11:33:29;18.10;99.70
32977;DHT22;47687;50.842;4.450;2022-09-21T11:41:39;18.80;97.90
32977;DHT22;47687;50.842;4.450;2022-09-21T11:46:58;18.90;97.10
32977;DHT22;47687;50.842;4.450;2022-09-21T11:57:57;19.80;97.10
32977;DHT22;47687;50.842;4.450;2022-09-21T12:00:29;20.10;96.20
32977;DHT22;47687;50.842;4.450;2022-09-21T12:11:27;20.70;93.00
32977;DHT22;47687;50.842;4.450;2022-09-21T12:14:28;20.70;92.90
32977;DHT22;47687;50.842;4.450;2022-09-21T12:19:59;19.90;91.90
32977;DHT22;47687;50.842;4.450;2022-09-21T12:22:28;20.40;92.30
32977;DHT22;47687;50.842;4.450;2022-09-21T12:27:33;20.50;91.80
32977;DHT22;47687;50.842;4.450;2022-09-21T12:30:10;20.40;90.90
32977;DHT22;47687;50.842;4.450;2022-09-21T12:37:50;20.90;90.90
32977;DHT22;47687;50.842;4.450;2022-09-21T12:43:13;21.20;88.70
32977;DHT22;47687;50.842;4.450;2022-09-21T12:45:45;20.80;88.10
32977;DHT22;47687;50.842;4.450;2022-09-21T12:48:28;20.40;89.80
32977;DHT22;47687;50.842;4.450;2022-09-21T12:51:23;20.30;89.40
32977;DHT22;47687;50.842;4.450;2022-09-21T12:53:54;19.50;90.90
32977;DHT22;47687;50.842;4.450;2022-09-21T13:07:47;19.10;91.70
32977;DHT22;47687;50.842;4.450;2022-09-21T13:13:03;18.50;92.00
32977;DHT22;47687;50.842;4.450;2022-09-21T13:15:41;18.40;92.50
32977;DHT22;47687;50.842;4.450;2022-09-21T13:18:21;18.50;93.30
32977;DHT22;47687;50.842;4.450;2022-09-21T13:20:48;18.90;92.90
32977;DHT22;47687;50.842;4.450;2022-09-21T13:23:21;19.00;92.00
32977;DHT22;47687;50.842;4.450;2022-09-21T13:25:57;18.90;92.00
32977;DHT22;47687;50.842;4.450;2022-09-21T13:28:58;18.80;92.50
32977;DHT22;47687;50.842;4.450;2022-09-21T13:36:40;18.30;92.90
32977;DHT22;47687;50.842;4.450;2022-09-21T13:41:33;18.20;93.80
32977;DHT22;47687;50.842;4.450;2022-09-21T13:44:04;18.00;93.40
32977;DHT22;47687;50.842;4.450;2022-09-21T13:54:16;17.80;94.40
32977;DHT22;47687;50.842;4.450;2022-09-21T13:56:45;17.90;94.50
32977;DHT22;47687;50.842;4.450;2022-09-21T13:59:22;17.90;94.20
32977;DHT22;47687;50.842;4.450;2022-09-21T14:01:49;18.00;94.40
32977;DHT22;47687;50.842;4.450;2022-09-21T14:04:27;17.90;93.90
32977;DHT22;47687;50.842;4.450;2022-09-21T14:06:54;18.00;93.00
32977;DHT22;47687;50.842;4.450;2022-09-21T14:09:42;18.20;92.70
32977;DHT22;47687;50.842;4.450;2022-09-21T14:12:22;18.20;93.10
32977;DHT22;47687;50.842;4.450;2022-09-21T14:15:33;18.20;93.90
32977;DHT22;47687;50.842;4.450;2022-09-21T14:23:30;18.70;94.60
32977;DHT22;47687;50.842;4.450;2022-09-21T14:25:57;18.80;94.10
32977;DHT22;47687;50.842;4.450;2022-09-21T14:28:33;19.00;93.20
32977;DHT22;47687;50.842;4.450;2022-09-21T14:31:07;18.90;91.80
32977;DHT22;47687;50.842;4.450;2022-09-21T14:33:54;18.90;92.20
32977;DHT22;47687;50.842;4.450;2022-09-21T14:36:36;18.80;91.60
32977;DHT22;47687;50.842;4.450;2022-09-21T14:39:20;18.90;91.80
32977;DHT22;47687;50.842;4.450;2022-09-21T14:41:50;19.20;91.80
32977;DHT22;47687;50.842;4.450;2022-09-21T14:44:22;19.40;91.80
32977;DHT22;47687;50.842;4.450;2022-09-21T14:58:04;20.70;90.10
32977;DHT22;47687;50.842;4.450;2022-09-21T15:00:40;20.90;88.70
32977;DHT22;47687;50.842;4.450;2022-09-21T15:06:26;21.00;87.00
32977;DHT22;47687;50.842;4.450;2022-09-21T15:09:23;20.80;88.70
32977;DHT22;47687;50.842;4.450;2022-09-21T15:12:20;20.80;87.40
32977;DHT22;47687;50.842;4.450;2022-09-21T15:17:55;20.60;87.40
32977;DHT22;47687;50.842;4.450;2022-09-21T15:20:24;20.20;87.70
32977;DHT22;47687;50.842;4.450;2022-09-21T15:22:55;19.80;87.30
32977;DHT22;47687;50.842;4.450;2022-09-21T15:25:22;19.50;88.00
32977;DHT22;47687;50.842;4.450;2022-09-21T15:27:48;19.40;88.30
32977;DHT22;47687;50.842;4.450;2022-09-21T15:30:24;19.20;87.70
32977;DHT22;47687;50.842;4.450;2022-09-21T15:33:01;19.00;88.90
32977;DHT22;47687;50.842;4.450;2022-09-21T15:35:32;18.90;90.00
32977;DHT22;47687;50.842;4.450;2022-09-21T15:37:58;18.70;89.70
32977;DHT22;47687;50.842;4.450;2022-09-21T15:40:26;18.60;90.20
32977;DHT22;47687;50.842;4.450;2022-09-21T15:48:34;18.50;90.80
32977;DHT22;47687;50.842;4.450;2022-09-21T15:51:23;18.40;90.70
32977;DHT22;47687;50.842;4.450;2022-09-21T15:53:56;18.40;90.80
32977;DHT22;47687;50.842;4.450;2022-09-21T15:56:25;18.40;90.40
32977;DHT22;47687;50.842;4.450;2022-09-21T15:58:58;18.30;90.90
32977;DHT22;47687;50.842;4.450;2022-09-21T16:01:38;18.20;90.80
32977;DHT22;47687;50.842;4.450;2022-09-21T16:04:10;18.20;91.00
32977;DHT22;47687;50.842;4.450;2022-09-21T16:06:39;18.20;91.20
32977;DHT22;47687;50.842;4.450;2022-09-21T16:09:42;18.10;91.10
32977;DHT22;47687;50.842;4.450;2022-09-21T16:14:52;18.10;92.40
32977;DHT22;47687;50.842;4.450;2022-09-21T16:17:38;18.10;92.60
32977;DHT22;47687;50.842;4.450;2022-09-21T16:20:16;18.10;92.50
32977;DHT22;47687;50.842;4.450;2022-09-21T16:22:46;18.20;92.60
32977;DHT22;47687;50.842;4.450;2022-09-21T16:25:27;18.20;92.40
32977;DHT22;47687;50.842;4.450;2022-09-21T16:28:00;18.20;91.70
32977;DHT22;47687;50.842;4.450;2022-09-21T16:30:42;18.10;91.30
32977;DHT22;47687;50.842;4.450;2022-09-21T16:35:58;18.00;92.30
32977;DHT22;47687;50.842;4.450;2022-09-21T16:38:26;18.00;92.50
32977;DHT22;47687;50.842;4.450;2022-09-21T16:40:51;17.90;92.30
32977;DHT22;47687;50.842;4.450;2022-09-21T16:43:18;17.80;92.50
32977;DHT22;47687;50.842;4.450;2022-09-21T16:45:45;17.70;92.40
32977;DHT22;47687;50.842;4.450;2022-09-21T16:48:12;17.70;92.60
32977;DHT22;47687;50.842;4.450;2022-09-21T16:50:37;17.50;92.80
32977;DHT22;47687;50.842;4.450;2022-09-21T16:53:03;17.40;92.90
32977;DHT22;47687;50.842;4.450;2022-09-21T16:55:29;17.40;93.10
32977;DHT22;47687;50.842;4.450;2022-09-21T16:57:55;17.20;92.80
32977;DHT22;47687;50.842;4.450;2022-09-21T17:00:21;17.20;92.80
32977;DHT22;47687;50.842;4.450;2022-09-21T17:02:47;17.00;93.00
32977;DHT22;47687;50.842;4.450;2022-09-21T17:05:14;16.90;93.20
32977;DHT22;47687;50.842;4.450;2022-09-21T17:07:54;16.70;93.80
32977;DHT22;47687;50.842;4.450;2022-09-21T17:10:24;16.60;94.00
32977;DHT22;47687;50.842;4.450;2022-09-21T17:12:54;16.50;94.60
32977;DHT22;47687;50.842;4.450;2022-09-21T17:15:21;16.40;95.10
32977;DHT22;47687;50.842;4.450;2022-09-21T17:17:48;16.30;95.20
32977;DHT22;47687;50.842;4.450;2022-09-21T17:20:17;16.30;95.50
32977;DHT22;47687;50.842;4.450;2022-09-21T17:22:43;16.20;95.90
32977;DHT22;47687;50.842;4.450;2022-09-21T17:25:09;16.00;96.10
32977;DHT22;47687;50.842;4.450;2022-09-21T17:27:35;16.00;96.40
32977;DHT22;47687;50.842;4.450;2022-09-21T17:30:01;15.80;96.70
32977;DHT22;47687;50.842;4.450;2022-09-21T17:32:27;15.70;97.20
32977;DHT22;47687;50.842;4.450;2022-09-21T17:35:00;15.60;97.70
32977;DHT22;47687;50.842;4.450;2022-09-21T17:37:36;15.50;98.30
32977;DHT22;47687;50.842;4.450;2022-09-21T17:40:03;15.40;98.80
32977;DHT22;47687;50.842;4.450;2022-09-21T17:42:29;15.30;99.30
32977;DHT22;47687;50.842;4.450;2022-09-21T17:47:52;15.00;99.90
32977;DHT22;47687;50.842;4.450;2022-09-21T17:50:24;14.80;99.90
32977;DHT22;47687;50.842;4.450;2022-09-21T17:52:51;14.70;99.90
32977;DHT22;47687;50.842;4.450;2022-09-21T17:55:37;14.60;99.90
32977;DHT22;47687;50.842;4.450;2022-09-21T18:03:35;14.20;99.90
32977;DHT22;47687;50.842;4.450;2022-09-21T18:06:15;14.10;99.90
32977;DHT22;47687;50.842;4.450;2022-09-21T18:08:41;14.00;99.90
32977;DHT22;47687;50.842;4.450;2022-09-21T18:14:16;13.80;99.90
32977;DHT22;47687;50.842;4.450;2022-09-21T18:19:40;13.60;99.90
32977;DHT22;47687;50.842;4.450;2022-09-21T18:24:40;13.50;99.90
32977;DHT22;47687;50.842;4.450;2022-09-21T18:27:08;13.40;99.90
32977;DHT22;47687;50.842;4.450;2022-09-21T18:29:35;13.30;99.90
32977;DHT22;47687;50.842;4.450;2022-09-21T18:45:52;12.90;99.90
32977;DHT22;47687;50.842;4.450;2022-09-21T18:53:56;12.70;99.90
32977;DHT22;47687;50.842;4.450;2022-09-21T18:56:24;12.60;99.90
32977;DHT22;47687;50.842;4.450;2022-09-21T18:58:50;12.60;99.90
32977;DHT22;47687;50.842;4.450;2022-09-21T19:01:17;12.60;99.90
32977;DHT22;47687;50.842;4.450;2022-09-21T19:03:45;12.50;99.90
32977;DHT22;47687;50.842;4.450;2022-09-21T19:08:43;12.50;99.90
32977;DHT22;47687;50.842;4.450;2022-09-21T19:12:00;12.50;99.90
32977;DHT22;47687;50.842;4.450;2022-09-21T19:20:57;12.30;99.90
32977;DHT22;47687;50.842;4.450;2022-09-21T19:26:00;12.20;99.90
32977;DHT22;47687;50.842;4.450;2022-09-21T19:31:11;12.10;99.90
32977;DHT22;47687;50.842;4.450;2022-09-21T19:33:37;12.10;99.90
32977;DHT22;47687;50.842;4.450;2022-09-21T19:36:03;12.10;99.90
32977;DHT22;47687;50.842;4.450;2022-09-21T19:38:30;12.00;99.90
32977;DHT22;47687;50.842;4.450;2022-09-21T19:41:02;12.00;99.90
32977;DHT22;47687;50.842;4.450;2022-09-21T19:43:49;12.00;99.90
32977;DHT22;47687;50.842;4.450;2022-09-21T19:46:28;12.00;99.90
32977;DHT22;47687;50.842;4.450;2022-09-21T19:48:58;12.00;99.90